createdAt,value
2018-06-17T00:00:50.441Z,32.83
2018-06-17T00:03:17.340Z,33.23
2018-06-17T00:05:44.249Z,34.97
2018-06-17T00:08:11.217Z,33.10
2018-06-17T00:10:38.129Z,31.30
2018-06-17T00:13:05.118Z,28.37
2018-06-17T00:15:32.022Z,28.10
2018-06-17T00:17:58.909Z,28.07
2018-06-17T00:20:25.825Z,26.23
2018-06-17T00:22:52.868Z,27.67
2018-06-17T00:25:19.761Z,29.13
2018-06-17T00:27:46.661Z,27.73
2018-06-17T00:30:13.586Z,28.67
2018-06-17T00:32:40.478Z,31.20
2018-06-17T00:35:07.386Z,28.97
2018-06-17T00:37:34.536Z,27.77
2018-06-17T00:40:01.434Z,30.00
2018-06-17T00:42:28.353Z,29.20
2018-06-17T00:44:55.261Z,31.03
2018-06-17T00:47:22.192Z,28.30
2018-06-17T00:49:49.058Z,28.83
2018-06-17T00:52:15.985Z,28.07
2018-06-17T00:54:42.878Z,28.67
2018-06-17T00:57:21.449Z,31.43
2018-06-17T00:59:48.325Z,30.57
2018-06-17T01:02:15.225Z,29.20
2018-06-17T01:04:42.117Z,29.83
2018-06-17T01:07:09.013Z,32.57
2018-06-17T01:09:35.895Z,30.67
2018-06-17T01:12:02.833Z,33.23
2018-06-17T01:14:29.711Z,32.43
2018-06-17T01:16:56.622Z,35.47
2018-06-17T01:19:23.524Z,33.33
2018-06-17T01:21:50.433Z,33.87
2018-06-17T01:24:17.314Z,35.83
2018-06-17T01:26:44.229Z,33.57
2018-06-17T01:29:11.117Z,31.13
2018-06-17T01:31:38.017Z,33.73
2018-06-17T01:34:05.033Z,35.20
2018-06-17T01:36:31.924Z,35.57
2018-06-17T01:38:58.825Z,35.93
2018-06-17T01:41:25.733Z,29.17
2018-06-17T01:43:52.622Z,31.17
2018-06-17T01:46:19.533Z,32.60
2018-06-17T01:48:46.492Z,33.33
2018-06-17T01:51:13.401Z,32.37
2018-06-17T01:53:40.298Z,33.27
2018-06-17T01:56:07.222Z,31.37
2018-06-17T01:58:34.124Z,31.07
2018-06-17T02:01:01.033Z,37.23
2018-06-17T02:03:33.686Z,34.87
2018-06-17T02:06:06.369Z,34.20
2018-06-17T02:08:39.070Z,31.83
2018-06-17T02:11:11.722Z,31.93
2018-06-17T02:13:38.624Z,32.97
2018-06-17T02:16:05.539Z,33.40
2018-06-17T02:18:32.437Z,33.83
2018-06-17T02:20:59.328Z,34.30
2018-06-17T02:23:26.237Z,34.17
2018-06-17T02:25:53.151Z,34.17
2018-06-17T02:28:20.053Z,29.90
2018-06-17T02:30:46.948Z,31.47
2018-06-17T02:33:13.858Z,31.70
2018-06-17T02:35:40.746Z,32.43
2018-06-17T02:38:07.645Z,31.27
2018-06-17T02:40:34.538Z,32.43
2018-06-17T02:43:01.444Z,32.00
2018-06-17T02:45:34.073Z,30.37
2018-06-17T02:48:06.733Z,31.03
2018-06-17T02:50:39.377Z,34.80
2018-06-17T02:53:12.013Z,31.97
2018-06-17T02:55:38.899Z,29.73
2018-06-17T02:58:05.805Z,30.00
2018-06-17T03:00:32.741Z,29.57
2018-06-17T03:02:59.665Z,32.37
2018-06-17T03:05:26.559Z,34.20
2018-06-17T03:07:53.530Z,32.77
2018-06-17T03:10:20.438Z,31.67
2018-06-17T03:12:47.339Z,31.33
2018-06-17T03:15:14.225Z,31.97
2018-06-17T03:17:41.160Z,33.13
2018-06-17T03:20:08.045Z,32.63
2018-06-17T03:22:34.950Z,33.23
2018-06-17T03:25:07.733Z,31.33
2018-06-17T03:27:40.462Z,32.53
2018-06-17T03:30:13.143Z,33.57
2018-06-17T03:32:45.753Z,34.83
2018-06-17T03:35:18.508Z,32.63
2018-06-17T03:37:45.418Z,32.27
2018-06-17T03:40:12.466Z,32.63
2018-06-17T03:42:39.403Z,30.60
2018-06-17T03:45:06.324Z,32.03
2018-06-17T03:47:33.253Z,33.87
2018-06-17T03:50:00.173Z,32.93
2018-06-17T03:52:27.065Z,34.57
2018-06-17T03:54:53.985Z,34.43
2018-06-17T03:57:20.896Z,33.50
2018-06-17T03:59:47.800Z,33.40
2018-06-17T04:02:14.709Z,33.70
2018-06-17T04:04:47.409Z,32.17
2018-06-17T04:07:14.301Z,35.97
2018-06-17T04:09:41.197Z,33.47
2018-06-17T04:12:08.085Z,34.07
2018-06-17T04:14:35.009Z,37.43
2018-06-17T04:17:08.662Z,33.80
2018-06-17T04:19:35.590Z,34.50
2018-06-17T04:22:02.493Z,38.77
2018-06-17T04:24:29.405Z,37.80
2018-06-17T04:26:56.347Z,34.70
2018-06-17T04:29:23.265Z,37.13
2018-06-17T04:31:50.164Z,38.40
2018-06-17T04:34:17.074Z,35.07
2018-06-17T04:36:43.981Z,37.60
2018-06-17T04:39:10.902Z,36.33
2018-06-17T04:41:37.795Z,37.10
2018-06-17T04:44:04.772Z,37.40
2018-06-17T04:46:31.677Z,37.43
2018-06-17T04:48:58.605Z,38.60
2018-06-17T04:51:25.525Z,36.37
2018-06-17T04:53:52.443Z,35.40
2018-06-17T04:56:19.353Z,35.47
2018-06-17T04:58:46.268Z,37.40
2018-06-17T05:01:13.248Z,40.40
2018-06-17T05:03:40.161Z,35.53
2018-06-17T05:06:07.099Z,33.63
2018-06-17T05:08:34.005Z,34.50
2018-06-17T05:11:00.929Z,34.23
2018-06-17T05:13:27.843Z,34.17
2018-06-17T05:15:54.766Z,33.73
2018-06-17T05:18:21.674Z,29.73
2018-06-17T05:20:48.589Z,26.17
2018-06-17T05:23:15.531Z,29.10
2018-06-17T05:25:42.441Z,27.33
2018-06-17T05:28:09.341Z,27.43
2018-06-17T05:30:36.256Z,23.97
2018-06-17T05:33:03.190Z,24.60
2018-06-17T05:35:30.095Z,23.27
2018-06-17T05:37:57.004Z,21.57
2018-06-17T05:40:23.921Z,22.37
2018-06-17T05:42:50.820Z,22.57
2018-06-17T05:45:17.709Z,21.03
2018-06-17T05:47:44.588Z,20.83
2018-06-17T05:50:11.485Z,19.53
2018-06-17T05:52:38.385Z,18.30
2018-06-17T05:55:05.288Z,17.93
2018-06-17T05:57:32.175Z,15.17
2018-06-17T05:59:59.069Z,14.23
2018-06-17T06:02:25.969Z,15.27
2018-06-17T06:04:52.860Z,13.33
2018-06-17T06:07:19.749Z,12.20
2018-06-17T06:09:46.653Z,12.50
2018-06-17T06:12:13.537Z,12.33
2018-06-17T06:14:40.434Z,12.90
2018-06-17T06:17:07.341Z,11.27
2018-06-17T06:19:34.278Z,11.53
2018-06-17T06:22:01.174Z,10.03
2018-06-17T06:24:28.105Z,10.47
2018-06-17T06:26:55.025Z,10.40
2018-06-17T06:29:21.933Z,10.87
2018-06-17T06:31:48.836Z,10.87
2018-06-17T06:34:15.733Z,10.30
2018-06-17T06:36:42.660Z,11.20
2018-06-17T06:39:10.273Z,9.47
2018-06-17T06:41:37.174Z,8.73
2018-06-17T06:44:04.173Z,7.57
2018-06-17T06:46:31.080Z,7.43
2018-06-17T06:48:57.972Z,6.53
2018-06-17T06:51:24.896Z,6.40
2018-06-17T06:53:51.810Z,6.37
2018-06-17T06:56:18.722Z,5.77
2018-06-17T06:58:45.624Z,6.57
2018-06-17T07:01:13.140Z,6.33
2018-06-17T07:04:49.481Z,6.20
2018-06-17T07:07:27.913Z,6.50
2018-06-17T07:10:05.893Z,5.50
2018-06-17T07:12:32.793Z,4.87
2018-06-17T07:14:59.697Z,4.90
2018-06-17T07:17:38.240Z,4.57
2018-06-17T07:20:05.148Z,4.33
2018-06-17T07:22:32.112Z,4.20
2018-06-17T07:24:59.077Z,4.17
2018-06-17T07:27:37.509Z,4.00
2018-06-17T07:30:04.422Z,3.90
2018-06-17T07:32:31.341Z,3.80
2018-06-17T07:34:58.249Z,4.53
2018-06-17T07:37:25.190Z,4.03
2018-06-17T07:40:12.022Z,4.23
2018-06-17T07:42:38.934Z,3.87
2018-06-17T07:45:05.840Z,4.10
2018-06-17T07:47:33.261Z,4.03
2018-06-17T07:50:12.792Z,4.30
2018-06-17T07:52:51.389Z,4.23
2018-06-17T07:55:18.288Z,3.93
2018-06-17T07:57:45.194Z,4.07
2018-06-17T08:00:12.102Z,3.77
2018-06-17T08:02:39.014Z,4.20
2018-06-17T08:05:05.909Z,3.63
2018-06-17T08:07:32.837Z,4.43
2018-06-17T08:09:59.744Z,4.00
2018-06-17T08:12:26.662Z,3.97
2018-06-17T08:14:53.550Z,4.27
2018-06-17T08:17:20.458Z,3.83
2018-06-17T08:19:47.369Z,3.67
2018-06-17T08:22:14.277Z,3.43
2018-06-17T08:24:41.209Z,3.53
2018-06-17T08:27:08.132Z,3.33
2018-06-17T08:29:37.517Z,3.40
2018-06-17T08:32:06.677Z,3.43
2018-06-17T08:34:33.585Z,3.63
2018-06-17T08:37:00.480Z,3.30
2018-06-17T08:39:27.385Z,3.10
2018-06-17T08:41:54.316Z,3.80
2018-06-17T08:44:21.639Z,3.83
2018-06-17T08:46:49.053Z,3.27
2018-06-17T08:49:16.241Z,3.27
2018-06-17T08:51:43.145Z,2.73
2018-06-17T08:54:10.138Z,2.80
2018-06-17T08:56:37.173Z,3.10
2018-06-17T08:59:04.089Z,3.00
2018-06-17T09:01:31.265Z,2.83
2018-06-17T09:03:58.220Z,2.87
2018-06-17T09:06:25.133Z,3.10
2018-06-17T09:08:53.445Z,2.83
2018-06-17T09:11:22.672Z,3.30
2018-06-17T09:13:52.359Z,2.73
2018-06-17T09:16:21.412Z,2.90
2018-06-17T09:18:49.267Z,3.20
2018-06-17T09:21:17.587Z,2.90
2018-06-17T09:23:46.472Z,3.20
2018-06-17T09:26:16.579Z,2.87
2018-06-17T09:28:43.529Z,2.80
2018-06-17T09:31:12.002Z,2.30
2018-06-17T09:33:41.070Z,3.30
2018-06-17T09:36:07.976Z,2.97
2018-06-17T09:38:34.878Z,2.70
2018-06-17T09:41:01.808Z,2.77
2018-06-17T09:43:28.713Z,3.07
2018-06-17T09:45:55.685Z,2.73
2018-06-17T09:48:22.568Z,3.20
2018-06-17T09:50:49.481Z,3.17
2018-06-17T09:53:16.360Z,2.60
2018-06-17T09:55:43.829Z,2.63
2018-06-17T09:58:10.773Z,2.60
2018-06-17T10:00:37.673Z,3.00
2018-06-17T10:03:04.633Z,3.00
2018-06-17T10:05:31.570Z,3.20
2018-06-17T10:07:58.481Z,3.23
2018-06-17T10:10:52.806Z,3.33
2018-06-17T10:13:20.460Z,2.90
2018-06-17T10:15:48.027Z,2.67
2018-06-17T10:18:17.919Z,3.30
2018-06-17T10:20:44.856Z,3.50
2018-06-17T10:23:11.931Z,3.10
2018-06-17T10:25:38.885Z,3.63
2018-06-17T10:28:06.327Z,3.20
2018-06-17T10:30:34.015Z,3.50
2018-06-17T10:33:00.965Z,3.27
2018-06-17T10:35:27.849Z,3.50
2018-06-17T10:37:54.733Z,3.57
2018-06-17T10:40:21.624Z,3.40
2018-06-17T10:42:48.994Z,4.10
2018-06-17T10:45:16.289Z,3.87
2018-06-17T10:47:43.794Z,3.70
2018-06-17T10:50:10.713Z,3.73
2018-06-17T10:52:38.474Z,3.43
2018-06-17T10:55:05.564Z,3.70
2018-06-17T10:57:32.689Z,3.67
2018-06-17T10:59:59.592Z,3.63
2018-06-17T11:02:26.513Z,2.93
2018-06-17T11:04:53.431Z,3.50
2018-06-17T11:07:20.529Z,3.73
2018-06-17T11:09:47.483Z,3.67
2018-06-17T11:12:14.470Z,3.77
2018-06-17T11:14:41.361Z,3.93
2018-06-17T11:17:08.298Z,4.03
2018-06-17T11:19:35.230Z,3.67
2018-06-17T11:22:02.125Z,3.70
2018-06-17T11:24:29.021Z,3.80
2018-06-17T11:26:55.941Z,3.50
2018-06-17T11:29:22.837Z,3.70
2018-06-17T11:31:49.741Z,4.00
2018-06-17T11:34:16.748Z,3.20
2018-06-17T11:36:43.657Z,3.13
2018-06-17T11:39:10.686Z,3.53
2018-06-17T11:41:37.514Z,3.53
2018-06-17T11:44:04.786Z,3.57
2018-06-17T11:46:31.696Z,3.90
2018-06-17T11:48:58.622Z,3.23
2018-06-17T11:51:25.704Z,3.10
2018-06-17T11:53:52.668Z,2.90
2018-06-17T11:56:19.577Z,2.93
2018-06-17T11:58:46.481Z,2.73
2018-06-17T12:01:13.394Z,2.73
2018-06-17T12:03:40.303Z,2.60
2018-06-17T12:06:07.308Z,3.27
2018-06-17T12:08:34.269Z,3.27
2018-06-17T12:11:01.189Z,3.37
2018-06-17T12:13:28.109Z,2.90
2018-06-17T12:15:55.013Z,3.13
2018-06-17T12:18:21.955Z,3.03
2018-06-17T12:20:48.873Z,2.83
2018-06-17T12:23:15.768Z,2.97
2018-06-17T12:25:42.696Z,3.47
2018-06-17T12:28:09.589Z,3.30
2018-06-17T12:30:36.505Z,2.97
2018-06-17T12:33:03.431Z,3.17
2018-06-17T12:35:30.341Z,2.97
2018-06-17T12:37:57.249Z,3.20
2018-06-17T12:40:24.144Z,3.00
2018-06-17T12:42:51.137Z,2.80
2018-06-17T12:45:18.046Z,2.80
2018-06-17T12:47:44.957Z,3.20
2018-06-17T12:50:11.942Z,3.50
2018-06-17T12:52:38.857Z,3.50
2018-06-17T12:55:05.744Z,3.33
2018-06-17T12:57:32.657Z,3.70
2018-06-17T13:00:01.718Z,3.77
2018-06-17T13:02:31.812Z,3.87
2018-06-17T13:04:58.738Z,3.90
2018-06-17T13:07:25.896Z,4.27
2018-06-17T13:09:52.896Z,4.57
2018-06-17T13:12:19.801Z,4.23
2018-06-17T13:14:46.817Z,4.00
2018-06-17T13:17:14.064Z,4.00
2018-06-17T13:19:41.109Z,3.40
2018-06-17T13:22:08.009Z,4.47
2018-06-17T13:24:35.174Z,4.20
2018-06-17T13:27:02.094Z,3.80
2018-06-17T13:29:28.985Z,3.80
2018-06-17T13:31:55.897Z,4.20
2018-06-17T13:34:22.851Z,4.63
2018-06-17T13:36:49.769Z,4.63
2018-06-17T13:39:16.677Z,4.13
2018-06-17T13:41:43.572Z,3.97
2018-06-17T13:44:10.464Z,3.90
2018-06-17T13:46:37.390Z,3.10
2018-06-17T13:49:04.381Z,3.67
2018-06-17T13:51:31.281Z,3.97
2018-06-17T13:53:58.568Z,3.40
2018-06-17T13:56:25.479Z,3.63
2018-06-17T13:58:52.369Z,2.40
2018-06-17T14:01:19.267Z,2.50
2018-06-17T14:03:46.165Z,2.47
2018-06-17T14:06:13.060Z,2.57
2018-06-17T14:08:39.961Z,3.10
2018-06-17T14:11:06.904Z,2.60
2018-06-17T14:13:33.914Z,2.67
2018-06-17T14:16:00.712Z,2.90
2018-06-17T14:18:27.640Z,2.60
2018-06-17T14:20:54.524Z,3.03
2018-06-17T14:23:21.429Z,2.57
2018-06-17T14:25:48.321Z,2.60
2018-06-17T14:28:15.221Z,2.57
2018-06-17T14:30:42.116Z,2.30
2018-06-17T14:33:09.008Z,2.37
2018-06-17T14:35:35.900Z,2.53
2018-06-17T14:38:02.840Z,2.17
2018-06-17T14:40:34.349Z,2.10
2018-06-17T14:43:07.080Z,2.07
2018-06-17T14:45:39.790Z,2.03
2018-06-17T14:48:12.536Z,1.83
2018-06-17T14:50:45.085Z,2.47
2018-06-17T14:53:12.144Z,2.00
2018-06-17T14:55:39.033Z,1.97
2018-06-17T14:58:05.928Z,2.13
2018-06-17T15:00:32.817Z,1.97
2018-06-17T15:02:59.733Z,1.83
2018-06-17T15:05:26.641Z,2.10
2018-06-17T15:07:53.582Z,2.00
2018-06-17T15:10:20.479Z,1.90
2018-06-17T15:12:47.428Z,1.70
2018-06-17T15:15:14.592Z,1.70
2018-06-17T15:17:41.453Z,1.70
2018-06-17T15:20:08.434Z,1.87
2018-06-17T15:22:35.285Z,1.73
2018-06-17T15:25:02.647Z,1.60
2018-06-17T15:27:29.553Z,1.60
2018-06-17T15:29:56.460Z,1.77
2018-06-17T15:33:31.839Z,1.80
2018-06-17T15:36:04.501Z,1.70
2018-06-17T15:38:37.152Z,2.10
2018-06-17T15:41:09.765Z,1.70
2018-06-17T15:43:36.678Z,1.57
2018-06-17T15:46:03.584Z,1.90
2018-06-17T15:48:30.486Z,1.73
2018-06-17T15:50:57.443Z,2.10
2018-06-17T15:53:24.349Z,2.00
2018-06-17T15:55:51.268Z,1.40
2018-06-17T15:58:18.209Z,1.80
2018-06-17T16:00:45.128Z,1.40
2018-06-17T16:03:12.020Z,1.60
2018-06-17T16:05:38.941Z,1.33
2018-06-17T16:08:05.838Z,1.50
2018-06-17T16:10:32.755Z,1.70
2018-06-17T16:13:05.371Z,1.70
2018-06-17T16:15:38.021Z,1.83
2018-06-17T16:18:10.656Z,1.60
2018-06-17T16:20:43.338Z,1.90
2018-06-17T16:23:10.243Z,1.60
2018-06-17T16:25:37.189Z,1.80
2018-06-17T16:28:04.099Z,1.60
2018-06-17T16:30:31.110Z,1.60
2018-06-17T16:32:58.014Z,1.77
2018-06-17T16:35:24.924Z,1.93
2018-06-17T16:37:51.837Z,1.50
2018-06-17T16:40:18.756Z,1.93
2018-06-17T16:42:45.942Z,1.90
2018-06-17T16:45:13.090Z,2.07
2018-06-17T16:47:40.006Z,1.87
2018-06-17T16:50:06.904Z,2.23
2018-06-17T16:52:42.901Z,2.07
2018-06-17T16:55:17.212Z,2.10
2018-06-17T16:57:49.842Z,2.47
2018-06-17T17:00:18.888Z,2.00
2018-06-17T17:02:46.265Z,1.70
2018-06-17T17:05:13.420Z,1.63
2018-06-17T17:07:40.703Z,2.10
2018-06-17T17:10:07.643Z,2.03
2018-06-17T17:12:34.570Z,2.20
2018-06-17T17:15:01.493Z,2.20
2018-06-17T17:17:28.446Z,2.03
2018-06-17T17:19:55.348Z,2.40
2018-06-17T17:22:22.253Z,2.30
2018-06-17T17:24:49.436Z,2.60
2018-06-17T17:27:16.349Z,2.47
2018-06-17T17:29:43.248Z,2.03
2018-06-17T17:32:15.884Z,2.00
2018-06-17T17:34:48.561Z,2.00
2018-06-17T17:37:21.346Z,1.97
2018-06-17T17:39:54.106Z,2.40
2018-06-17T17:42:21.025Z,2.03
2018-06-17T17:44:53.822Z,2.77
2018-06-17T17:47:22.674Z,1.90
2018-06-17T17:49:49.713Z,1.93
2018-06-17T17:52:16.626Z,1.97
2018-06-17T17:54:43.751Z,1.90
2018-06-17T17:57:10.673Z,1.93
2018-06-17T17:59:37.808Z,2.40
2018-06-17T18:02:05.092Z,2.07
2018-06-17T18:04:32.053Z,2.33
2018-06-17T18:06:59.118Z,2.23
2018-06-17T18:09:26.080Z,1.60
2018-06-17T18:11:52.996Z,2.07
2018-06-17T18:14:19.900Z,1.80
2018-06-17T18:16:46.851Z,2.30
2018-06-17T18:19:13.768Z,2.07
2018-06-17T18:21:40.681Z,2.10
2018-06-17T18:24:07.598Z,2.20
2018-06-17T18:26:40.314Z,1.87
2018-06-17T18:29:12.965Z,2.07
2018-06-17T18:31:45.650Z,1.80
2018-06-17T18:34:18.325Z,2.30
2018-06-17T18:36:45.233Z,2.20
2018-06-17T18:39:12.208Z,2.13
2018-06-17T18:41:39.228Z,1.70
2018-06-17T18:44:06.128Z,2.10
2018-06-17T18:46:33.126Z,2.10
2018-06-17T18:49:00.175Z,1.80
2018-06-17T18:51:27.371Z,2.20
2018-06-17T18:53:54.273Z,2.17
2018-06-17T18:56:21.216Z,2.07
2018-06-17T18:58:48.233Z,1.90
2018-06-17T19:01:15.124Z,2.10
2018-06-17T19:03:42.228Z,1.90
2018-06-17T19:06:10.034Z,2.80
2018-06-17T19:08:42.612Z,2.23
2018-06-17T19:11:15.240Z,2.20
2018-06-17T19:13:47.951Z,2.60
2018-06-17T19:16:20.720Z,2.17
2018-06-17T19:18:47.634Z,2.30
2018-06-17T19:21:14.523Z,2.10
2018-06-17T19:23:41.423Z,2.33
2018-06-17T19:26:08.328Z,2.30
2018-06-17T19:28:35.246Z,2.50
2018-06-17T19:31:02.140Z,2.30
2018-06-17T19:33:29.081Z,2.60
2018-06-17T19:35:55.994Z,2.37
2018-06-17T19:38:22.925Z,2.43
2018-06-17T19:40:49.913Z,2.70
2018-06-17T19:43:16.791Z,2.50
2018-06-17T19:45:43.706Z,2.47
2018-06-17T19:48:10.796Z,2.40
2018-06-17T19:50:43.459Z,2.60
2018-06-17T19:53:16.179Z,2.37
2018-06-17T19:55:48.857Z,2.30
2018-06-17T19:58:25.737Z,2.10
2018-06-17T20:00:55.735Z,2.23
2018-06-17T20:03:22.653Z,2.47
2018-06-17T20:05:49.586Z,2.90
2018-06-17T20:08:16.488Z,2.27
2018-06-17T20:10:43.405Z,2.47
2018-06-17T20:13:10.301Z,2.70
2018-06-17T20:15:37.193Z,2.57
2018-06-17T20:18:04.181Z,2.23
2018-06-17T20:20:31.109Z,2.33
2018-06-17T20:22:58.017Z,2.50
2018-06-17T20:25:24.924Z,2.40
2018-06-17T20:27:52.613Z,2.47
2018-06-17T20:30:19.606Z,2.47
2018-06-17T20:32:52.176Z,2.50
2018-06-17T20:35:24.785Z,2.67
2018-06-17T20:37:57.542Z,2.70
2018-06-17T20:40:30.240Z,2.43
2018-06-17T20:43:02.934Z,2.53
2018-06-17T20:45:29.846Z,2.43
2018-06-17T20:47:56.765Z,2.53
2018-06-17T20:50:23.648Z,2.43
2018-06-17T20:52:50.577Z,2.73
2018-06-17T20:55:17.938Z,2.67
2018-06-17T20:57:45.534Z,2.90
2018-06-17T21:00:12.425Z,2.70
2018-06-17T21:02:39.344Z,2.40
2018-06-17T21:05:06.252Z,2.63
2018-06-17T21:07:33.128Z,2.83
2018-06-17T21:10:00.027Z,2.50
2018-06-17T21:12:26.921Z,2.60
2018-06-17T21:14:53.819Z,2.83
2018-06-17T21:17:20.767Z,2.90
2018-06-17T21:19:53.292Z,2.30
2018-06-17T21:22:25.976Z,2.53
2018-06-17T21:24:58.626Z,2.60
2018-06-17T21:27:31.272Z,2.50
2018-06-17T21:29:58.181Z,2.93
2018-06-17T21:32:25.378Z,2.40
2018-06-17T21:34:52.272Z,2.77
2018-06-17T21:37:19.206Z,3.03
2018-06-17T21:39:46.412Z,2.77
2018-06-17T21:42:13.332Z,3.17
2018-06-17T21:44:40.252Z,2.57
2018-06-17T21:47:07.156Z,3.00
2018-06-17T21:49:34.038Z,3.27
2018-06-17T21:52:01.921Z,3.30
2018-06-17T21:54:28.829Z,3.60
2018-06-17T21:56:55.801Z,3.80
2018-06-17T21:59:22.681Z,3.53
2018-06-17T22:01:49.605Z,3.73
2018-06-17T22:04:22.244Z,3.97
2018-06-17T22:06:49.238Z,3.40
2018-06-17T22:10:22.593Z,3.20
2018-06-17T22:12:55.309Z,3.70
2018-06-17T22:15:27.961Z,3.40
2018-06-17T22:17:55.123Z,3.30
2018-06-17T22:20:22.072Z,3.57
2018-06-17T22:22:48.990Z,3.33
2018-06-17T22:25:16.145Z,2.97
2018-06-17T22:27:43.063Z,3.60
2018-06-17T22:30:09.964Z,3.30
2018-06-17T22:32:36.917Z,3.00
2018-06-17T22:35:03.912Z,3.37
2018-06-17T22:37:30.808Z,3.13
2018-06-17T22:39:57.696Z,3.37
2018-06-17T22:42:24.601Z,3.17
2018-06-17T22:44:51.491Z,4.13
2018-06-17T22:47:24.252Z,3.90
2018-06-17T22:49:51.120Z,3.33
2018-06-17T22:52:17.999Z,3.07
2018-06-17T22:54:49.243Z,3.50
2018-06-17T22:57:21.977Z,4.10
2018-06-17T22:59:54.557Z,3.80
2018-06-17T23:02:27.232Z,3.40
2018-06-17T23:04:59.917Z,3.97
2018-06-17T23:07:32.592Z,4.70
2018-06-17T23:09:59.516Z,4.30
2018-06-17T23:12:26.433Z,4.63
2018-06-17T23:14:53.314Z,3.97
2018-06-17T23:17:20.202Z,4.00
2018-06-17T23:19:47.076Z,4.23
2018-06-17T23:22:14.021Z,3.50
2018-06-17T23:24:40.921Z,4.07
2018-06-17T23:27:07.838Z,3.50
2018-06-17T23:29:34.798Z,4.10
2018-06-17T23:32:01.694Z,3.43
2018-06-17T23:34:28.605Z,3.47
2018-06-17T23:36:55.492Z,3.20
2018-06-17T23:39:22.413Z,3.53
2018-06-17T23:41:49.312Z,3.73
2018-06-17T23:44:16.221Z,2.93
2018-06-17T23:46:48.825Z,3.80
2018-06-17T23:49:21.504Z,3.70
2018-06-17T23:51:54.204Z,3.60
2018-06-17T23:54:26.904Z,3.37
2018-06-17T23:56:53.846Z,3.67
2018-06-17T23:59:20.763Z,3.50
